Hyundai Forward — 3EJY9 — position and weather

sailwx.info

Track history (hours):
 
Tides and Currents Weather Stations Pressure Air Temp Water Temp Dewpoint Dewpoint Depression Visibility Wind Speed Wind Dir Waves Ship Positions

Hyundai Forward

Last reported at 2016-Jun-25 10:32 UTC. Time now 2016-Jun-27 04:09 UTC.
Position N 24°12' E 119°00'.

Length 295 m; draft 9 m.

Type: Cargo ship. MMSI: 372652000.

Date/timePositionNaut miles runAvg speedWind from/ knotsBaromVisibWave heightAir tempDewpointWater temp
2016-Jun-25 10:32N 24°12' E 119°00'1412.1
2016-Jun-25 09:23N 24°03' E 118°49'1011.9
2016-Jun-25 08:31N 23°56' E 118°40'1212.0
2016-Jun-25 07:30N 23°48' E 118°30'1612.4
2016-Jun-25 06:13N 23°38' E 118°17'  
2016-Jun-17 08:26N 22°07' E 114°18'1410.9
2016-Jun-17 07:07N 22°16' E 114°06'5 1.5
2016-Jun-17 04:04N 22°21' E 114°07'0 0.0
2016-Jun-17 02:16N 22°21' E 114°07'0 0.0
2016-Jun-17 00:28N 22°21' E 114°07'3 2.9
2016-Jun-16 23:34N 22°19' E 114°06'13 9.3
2016-Jun-16 22:09N 22°08' E 114°15'5 8.8
2016-Jun-16 21:33N 22°08' E 114°20'30713.4
2016-Jun-15 22:33N 22°31' E 119°52'1414.0
2016-Jun-15 21:33N 22°32' E 120°07'1211.7
2016-Jun-15 20:34N 22°33' E 120°19'1 0.3
2016-Jun-15 17:32N 22°34' E 120°19'0 0.0
2016-Jun-15 16:14N 22°34' E 120°19'0 0.0
2016-Jun-15 15:26N 22°34' E 120°19'0 0.0
2016-Jun-15 14:32N 22°34' E 120°19'0 0.0
2016-Jun-15 13:33N 22°34' E 120°19'3 3.0
2016-Jun-15 12:33N 22°32' E 120°16'4 3.9
2016-Jun-15 11:31N 22°33' E 120°11'1616.3
2016-Jun-15 10:33N 22°46' E 120°03'  
Track history (hours):
 
Tides and Currents Weather Stations Pressure Air Temp Water Temp Dewpoint Dewpoint Depression Visibility Wind Speed Wind Dir Waves Ship Positions

Hyundai Forward

Last reported at 2016-Jun-25 10:32 UTC. Time now 2016-Jun-27 04:09 UTC.
Position N 24°12' E 119°00'.

Length 295 m; draft 9 m.

Type: Cargo ship. MMSI: 372652000.

Date/timePositionNaut miles runAvg speedWind from/ knotsBaromVisibWave heightAir tempDewpointWater temp
2016-Jun-25 10:32N 24°12' E 119°00'1412.1
2016-Jun-25 09:23N 24°03' E 118°49'1011.9
2016-Jun-25 08:31N 23°56' E 118°40'1212.0
2016-Jun-25 07:30N 23°48' E 118°30'1612.4
2016-Jun-25 06:13N 23°38' E 118°17'  
2016-Jun-17 08:26N 22°07' E 114°18'1410.9
2016-Jun-17 07:07N 22°16' E 114°06'5 1.5
2016-Jun-17 04:04N 22°21' E 114°07'0 0.0
2016-Jun-17 02:16N 22°21' E 114°07'0 0.0
2016-Jun-17 00:28N 22°21' E 114°07'3 2.9
2016-Jun-16 23:34N 22°19' E 114°06'13 9.3
2016-Jun-16 22:09N 22°08' E 114°15'5 8.8
2016-Jun-16 21:33N 22°08' E 114°20'30713.4
2016-Jun-15 22:33N 22°31' E 119°52'1414.0
2016-Jun-15 21:33N 22°32' E 120°07'1211.7
2016-Jun-15 20:34N 22°33' E 120°19'1 0.3
2016-Jun-15 17:32N 22°34' E 120°19'0 0.0
2016-Jun-15 16:14N 22°34' E 120°19'0 0.0
2016-Jun-15 15:26N 22°34' E 120°19'0 0.0
2016-Jun-15 14:32N 22°34' E 120°19'0 0.0
2016-Jun-15 13:33N 22°34' E 120°19'3 3.0
2016-Jun-15 12:33N 22°32' E 120°16'4 3.9
2016-Jun-15 11:31N 22°33' E 120°11'1616.3
2016-Jun-15 10:33N 22°46' E 120°03'  

Dump ship's entire track history